Time;durP1;ratioP1;P1;durP2;ratioP2;P2;SDS_P1;SDS_P2;PMS_P1;PMS_P2;Temp;Humidity;BMP_temperature;BMP_pressure;BME280_temperature;BME280_humidity;BME280_pressure;Samples;Min_cycle;Max_cycle;Signal;HPM_P1;HPM_P2
2022/10/11 00:01:05;;;;;;;11.75;2.28;;;18.90;99.40;;;;;;6254225;28;20125;-81
2022/10/11 00:04:06;;;;;;;10.90;2.25;;;19.00;99.40;;;;;;6253574;28;20050;-80
2022/10/11 00:07:08;;;;;;;10.55;3.22;;;19.00;99.40;;;;;;6254045;28;20042;-80
2022/10/11 00:10:10;;;;;;;10.85;1.58;;;19.00;99.40;;;;;;6252796;28;20537;-80
2022/10/11 00:13:12;;;;;;;9.18;2.35;;;19.10;99.40;;;;;;6254879;28;20053;-80
2022/10/11 00:16:15;;;;;;;7.90;2.28;;;19.10;99.20;;;;;;6253870;28;20045;-80
2022/10/11 00:19:17;;;;;;;8.93;2.58;;;19.10;99.20;;;;;;6253738;28;20491;-80
2022/10/11 00:22:18;;;;;;;8.82;2.55;;;19.10;99.20;;;;;;6252929;28;20049;-80
2022/10/11 00:25:21;;;;;;;7.72;2.25;;;19.00;99.30;;;;;;6254546;28;20045;-80
2022/10/11 00:28:22;;;;;;;6.97;1.92;;;19.00;99.40;;;;;;6254525;28;20056;-80
2022/10/11 00:31:25;;;;;;;17.02;5.53;;;18.90;99.50;;;;;;6254617;28;20046;-80
2022/10/11 00:34:27;;;;;;;13.30;2.15;;;18.80;99.60;;;;;;6254126;28;20064;-80
2022/10/11 00:37:29;;;;;;;9.00;2.75;;;18.70;99.80;;;;;;6252656;28;20049;-80
2022/10/11 00:40:30;;;;;;;13.18;3.33;;;18.60;99.90;;;;;;6253875;28;20133;-80
2022/10/11 00:43:33;;;;;;;9.23;2.63;;;18.40;99.90;;;;;;6254359;28;20050;-80
2022/10/11 00:46:36;;;;;;;16.13;3.42;;;18.40;99.90;;;;;;6253986;28;20429;-79
2022/10/11 00:49:42;;;;;;;18.15;4.07;;;18.30;99.90;;;;;;6251441;28;20053;-80
2022/10/11 00:52:48;;;;;;;9.15;2.72;;;18.30;99.90;;;;;;6254617;28;20049;-80
2022/10/11 00:55:55;;;;;;;5.75;2.33;;;18.30;99.90;;;;;;6255149;28;20415;-81
2022/10/11 00:58:59;;;;;;;17.95;2.67;;;18.30;99.90;;;;;;6257928;28;20049;-81
2022/10/11 01:02:02;;;;;;;11.95;2.58;;;18.30;99.90;;;;;;6256860;28;20049;-81
2022/10/11 01:05:06;;;;;;;11.50;2.38;;;18.40;99.90;;;;;;6257037;28;20049;-80
2022/10/11 01:08:08;;;;;;;8.23;2.03;;;18.30;99.90;;;;;;6258430;28;20500;-81
2022/10/11 01:11:12;;;;;;;12.13;2.85;;;18.20;99.90;;;;;;6257979;28;20050;-80
2022/10/11 01:14:46;;;;;;;8.32;2.13;;;18.20;99.90;;;;;;6258116;28;20499;-80
2022/10/11 01:17:54;;;;;;;10.38;3.55;;;18.10;99.90;;;;;;6253856;28;20053;-80
2022/10/11 01:21:03;;;;;;;7.13;2.88;;;18.10;99.90;;;;;;6260214;28;20570;-80
2022/10/11 01:24:24;;;;;;;6.72;3.00;;;18.10;99.90;;;;;;6260267;28;20053;-79
2022/10/11 01:27:39;;;;;;;16.55;3.17;;;18.00;99.90;;;;;;6263810;28;20056;-79
2022/10/11 01:30:42;;;;;;;13.73;2.50;;;18.00;99.90;;;;;;6237715;28;20052;-79
2022/10/11 01:33:51;;;;;;;16.48;3.90;;;17.90;99.90;;;;;;6252801;28;20050;-81
2022/10/11 01:37:00;;;;;;;16.30;3.03;;;18.00;99.90;;;;;;6247915;28;20046;-80
2022/10/11 01:40:09;;;;;;;7.93;2.58;;;17.90;99.90;;;;;;6235521;28;20057;-80
2022/10/11 01:43:11;;;;;;;11.13;2.83;;;17.80;99.90;;;;;;6236463;28;20066;-80
2022/10/11 01:46:15;;;;;;;6.80;2.20;;;17.80;99.90;;;;;;6235943;28;20056;-80
2022/10/11 01:49:17;;;;;;;11.75;3.05;;;17.80;99.90;;;;;;6235078;28;20050;-80
2022/10/11 01:52:20;;;;;;;12.80;2.33;;;17.90;99.90;;;;;;6235923;28;20049;-81
2022/10/11 01:55:28;;;;;;;7.45;2.33;;;18.00;99.90;;;;;;6235712;28;20540;-79
2022/10/11 01:58:40;;;;;;;14.27;3.00;;;18.00;99.90;;;;;;6232942;28;20050;-80
2022/10/11 02:01:54;;;;;;;7.13;2.42;;;18.10;99.90;;;;;;6228551;28;20049;-79
2022/10/11 02:05:01;;;;;;;18.67;5.10;;;18.10;99.90;;;;;;6228429;28;20056;-79
2022/10/11 02:08:08;;;;;;;9.13;2.77;;;18.10;99.90;;;;;;6227451;28;20048;-79
2022/10/11 02:11:19;;;;;;;9.90;2.67;;;18.10;99.90;;;;;;6227708;28;20671;-79
2022/10/11 02:14:24;;;;;;;10.02;2.22;;;18.00;99.90;;;;;;6226772;28;20296;-79
2022/10/11 02:17:31;;;;;;;11.80;2.88;;;18.00;99.90;;;;;;6227693;28;20542;-79
2022/10/11 02:20:34;;;;;;;7.80;2.90;;;18.00;99.90;;;;;;6228026;28;20420;-80
2022/10/11 02:23:41;;;;;;;15.52;3.17;;;18.10;99.90;;;;;;6229119;28;20054;-80
2022/10/11 02:26:47;;;;;;;10.90;3.22;;;18.00;99.90;;;;;;6229027;28;20053;-79
2022/10/11 02:29:51;;;;;;;12.55;3.70;;;18.00;99.90;;;;;;6228930;28;20057;-79
2022/10/11 02:32:55;;;;;;;12.18;2.45;;;18.00;99.90;;;;;;6228870;28;20052;-79
2022/10/11 02:36:03;;;;;;;8.10;3.28;;;18.00;99.90;;;;;;6226532;28;20077;-79
2022/10/11 02:39:11;;;;;;;10.75;3.40;;;17.80;99.90;;;;;;6224773;28;20053;-78
2022/10/11 02:42:17;;;;;;;12.13;3.47;;;17.80;99.90;;;;;;6225674;28;20053;-78
2022/10/11 02:45:25;;;;;;;13.07;4.07;;;17.80;99.90;;;;;;6225881;28;20411;-79
2022/10/11 02:48:29;;;;;;;8.30;3.47;;;17.60;99.90;;;;;;6225763;28;20049;-78
2022/10/11 02:51:31;;;;;;;10.02;4.43;;;17.50;99.90;;;;;;6226689;28;20056;-78
2022/10/11 02:54:33;;;;;;;10.98;3.55;;;17.50;99.90;;;;;;6226579;28;20077;-78
2022/10/11 02:57:35;;;;;;;12.65;4.18;;;17.40;99.90;;;;;;6226642;28;20048;-79
2022/10/11 03:00:36;;;;;;;13.45;3.65;;;17.30;99.90;;;;;;6226791;28;20053;-78
2022/10/11 03:03:39;;;;;;;20.88;4.70;;;17.30;99.90;;;;;;6227567;28;20049;-78
2022/10/11 03:06:41;;;;;;;18.33;4.57;;;17.20;99.90;;;;;;6227021;28;20045;-79
2022/10/11 03:09:43;;;;;;;13.52;4.95;;;17.10;99.90;;;;;;6226072;28;20427;-78
2022/10/11 03:12:45;;;;;;;16.55;4.38;;;17.00;99.90;;;;;;6226696;28;20053;-78
2022/10/11 03:15:48;;;;;;;24.27;5.72;;;16.90;99.90;;;;;;6227945;28;20046;-80
2022/10/11 03:18:51;;;;;;;13.15;4.53;;;16.80;99.90;;;;;;6226714;28;20455;-80
2022/10/11 03:21:53;;;;;;;22.52;5.65;;;16.70;99.90;;;;;;6227092;28;20049;-80
2022/10/11 03:24:55;;;;;;;13.57;6.60;;;16.60;99.90;;;;;;6228433;28;20049;-80
2022/10/11 03:27:56;;;;;;;14.40;4.82;;;16.50;99.90;;;;;;6226493;28;20427;-80
2022/10/11 03:30:58;;;;;;;19.30;5.45;;;16.40;99.90;;;;;;6226982;28;20080;-80
2022/10/11 03:34:01;;;;;;;18.55;6.65;;;16.40;99.90;;;;;;6227204;28;20500;-81
2022/10/11 03:37:03;;;;;;;20.17;5.88;;;16.40;99.90;;;;;;6226672;28;20038;-80
2022/10/11 03:40:08;;;;;;;14.00;6.15;;;16.30;99.90;;;;;;6226024;28;20049;-80
2022/10/11 03:43:10;;;;;;;13.23;6.65;;;16.40;99.90;;;;;;6226905;28;20058;-80
2022/10/11 03:46:11;;;;;;;14.63;5.95;;;16.40;99.90;;;;;;6226543;28;20050;-80
2022/10/11 03:49:14;;;;;;;12.27;6.50;;;16.40;99.90;;;;;;6225518;28;20053;-80
2022/10/11 03:52:16;;;;;;;16.48;6.57;;;16.30;99.90;;;;;;6226958;28;20056;-81
2022/10/11 03:55:18;;;;;;;19.33;5.85;;;16.30;99.90;;;;;;6228776;28;20057;-80
2022/10/11 03:58:20;;;;;;;12.93;6.10;;;16.30;99.90;;;;;;6227993;28;20077;-80
2022/10/11 04:01:21;;;;;;;14.98;6.47;;;16.20;99.90;;;;;;6228961;28;20050;-81
2022/10/11 04:04:24;;;;;;;18.63;7.10;;;16.20;99.90;;;;;;6230911;28;20396;-79
2022/10/11 04:07:26;;;;;;;26.67;8.73;;;16.10;99.90;;;;;;6227982;28;20069;-80
2022/10/11 04:10:29;;;;;;;21.35;7.60;;;16.00;99.90;;;;;;6229042;28;20393;-81
2022/10/11 04:13:31;;;;;;;24.70;9.27;;;15.90;99.90;;;;;;6229614;28;20076;-79
2022/10/11 04:16:34;;;;;;;24.15;8.18;;;15.80;99.90;;;;;;6230999;28;20042;-81
2022/10/11 04:19:37;;;;;;;25.25;9.95;;;15.70;99.90;;;;;;6231450;28;20136;-79
2022/10/11 04:22:38;;;;;;;24.10;11.98;;;15.70;99.90;;;;;;6256439;28;20065;-79
2022/10/11 04:25:40;;;;;;;27.65;11.52;;;15.60;99.90;;;;;;6257962;28;20045;-80
2022/10/11 04:28:42;;;;;;;24.83;10.98;;;15.60;99.90;;;;;;6257196;28;20045;-80
2022/10/11 04:31:43;;;;;;;27.45;12.27;;;15.50;99.90;;;;;;6255209;28;20049;-80
2022/10/11 04:34:46;;;;;;;26.42;12.38;;;15.40;99.90;;;;;;6256255;28;20050;-80
2022/10/11 04:37:48;;;;;;;24.50;13.48;;;15.30;99.90;;;;;;6256974;28;20041;-80
2022/10/11 04:40:50;;;;;;;19.52;12.55;;;15.10;99.90;;;;;;6261681;28;20045;-80
2022/10/11 04:43:51;;;;;;;20.80;12.55;;;15.10;99.90;;;;;;6253025;28;20049;-80
2022/10/11 04:46:54;;;;;;;24.00;13.50;;;15.00;99.90;;;;;;6252020;28;20046;-80
2022/10/11 04:49:57;;;;;;;19.92;12.32;;;15.00;99.90;;;;;;6251109;28;20050;-80
2022/10/11 04:52:59;;;;;;;26.52;13.50;;;15.00;99.90;;;;;;6252772;28;20055;-79
2022/10/11 04:56:03;;;;;;;28.13;13.38;;;15.00;99.90;;;;;;6251939;28;20539;-80
2022/10/11 04:59:05;;;;;;;31.08;12.93;;;15.00;99.90;;;;;;6251543;28;20045;-80
2022/10/11 05:02:06;;;;;;;22.50;11.98;;;14.90;99.90;;;;;;6251024;28;20419;-80
2022/10/11 05:05:11;;;;;;;22.50;13.38;;;15.00;99.90;;;;;;6252215;28;20401;-79
2022/10/11 05:08:13;;;;;;;34.28;14.40;;;15.10;99.90;;;;;;6253058;28;20151;-80
2022/10/11 05:11:16;;;;;;;30.52;14.93;;;15.20;99.90;;;;;;6251248;28;20045;-81
2022/10/11 05:14:18;;;;;;;28.90;13.70;;;15.40;99.90;;;;;;6251363;28;20049;-80
2022/10/11 05:17:20;;;;;;;33.22;16.13;;;15.40;99.90;;;;;;6251267;28;20419;-80
2022/10/11 05:20:23;;;;;;;35.10;14.65;;;15.50;99.90;;;;;;6252423;28;20045;-80
2022/10/11 05:23:24;;;;;;;37.10;16.08;;;15.50;99.90;;;;;;6252827;28;20072;-80
2022/10/11 05:26:28;;;;;;;38.00;14.60;;;15.50;99.90;;;;;;6252372;28;20046;-82
2022/10/11 05:29:29;;;;;;;20.80;12.18;;;15.50;99.90;;;;;;6252826;28;20045;-81
2022/10/11 05:32:31;;;;;;;24.25;13.63;;;15.60;99.90;;;;;;6253003;28;20054;-81
2022/10/11 05:35:34;;;;;;;27.45;13.60;;;15.50;99.90;;;;;;6251932;28;20057;-82
2022/10/11 05:38:36;;;;;;;22.27;11.70;;;15.60;99.90;;;;;;6227837;28;20046;-81
2022/10/11 05:41:38;;;;;;;22.77;11.63;;;15.60;99.90;;;;;;6227330;28;20057;-81
2022/10/11 05:44:40;;;;;;;25.63;10.80;;;15.60;99.90;;;;;;6227650;28;20060;-81
2022/10/11 05:47:41;;;;;;;23.95;11.35;;;15.60;99.90;;;;;;6224927;28;20046;-80
2022/10/11 05:50:44;;;;;;;20.85;10.18;;;15.70;99.90;;;;;;6227780;28;20050;-83
2022/10/11 05:53:46;;;;;;;19.45;9.13;;;15.70;99.90;;;;;;6225255;28;20057;-83
2022/10/11 05:56:48;;;;;;;22.15;9.90;;;15.60;99.90;;;;;;6225522;28;20054;-82
2022/10/11 05:59:50;;;;;;;14.20;8.88;;;15.50;99.90;;;;;;6226123;28;20205;-82
2022/10/11 06:02:51;;;;;;;17.20;8.05;;;15.50;99.90;;;;;;6227060;28;20049;-82
2022/10/11 06:05:55;;;;;;;14.98;7.68;;;15.50;99.90;;;;;;6226590;28;20046;-83
2022/10/11 06:08:57;;;;;;;16.17;7.63;;;15.50;99.90;;;;;;6227840;28;20428;-83
2022/10/11 06:11:58;;;;;;;16.58;6.38;;;15.40;99.90;;;;;;6229048;28;20049;-83
2022/10/11 06:15:00;;;;;;;13.40;6.05;;;15.40;99.90;;;;;;6232310;28;20046;-83
2022/10/11 06:18:01;;;;;;;14.45;7.03;;;15.40;99.90;;;;;;6232705;28;20072;-83
2022/10/11 06:21:05;;;;;;;13.10;5.88;;;15.40;99.90;;;;;;6235526;28;20068;-83
2022/10/11 06:24:08;;;;;;;13.30;5.63;;;15.60;99.90;;;;;;6231068;28;20051;-82
2022/10/11 06:27:10;;;;;;;19.05;5.45;;;15.50;99.90;;;;;;6231245;28;20045;-83
2022/10/11 06:30:12;;;;;;;11.20;5.07;;;15.60;99.90;;;;;;6230969;28;20056;-83
2022/10/11 06:33:14;;;;;;;10.07;4.40;;;15.60;99.90;;;;;;6231892;28;20054;-83
2022/10/11 06:36:18;;;;;;;7.25;3.25;;;15.50;99.90;;;;;;6231743;28;20052;-83
2022/10/11 06:39:19;;;;;;;9.20;3.10;;;15.50;99.90;;;;;;6231466;28;20046;-83
2022/10/11 06:42:21;;;;;;;6.45;3.17;;;15.60;99.90;;;;;;6231447;28;20057;-83
2022/10/11 06:45:23;;;;;;;8.55;2.60;;;15.60;99.90;;;;;;6230856;28;20052;-83
2022/10/11 06:48:24;;;;;;;11.77;2.53;;;15.70;99.90;;;;;;6231796;28;20049;-83
2022/10/11 06:51:29;;;;;;;5.72;2.17;;;15.70;99.90;;;;;;6232799;28;20057;-83
2022/10/11 06:54:30;;;;;;;12.52;4.28;;;15.70;99.90;;;;;;6231918;28;20060;-83
2022/10/11 06:57:32;;;;;;;6.68;2.13;;;15.80;99.90;;;;;;6230282;28;20046;-81
2022/10/11 07:00:34;;;;;;;15.68;2.30;;;15.90;99.90;;;;;;6229098;28;20519;-82
2022/10/11 07:03:36;;;;;;;11.45;2.25;;;16.10;99.90;;;;;;6229184;28;20054;-82
2022/10/11 07:06:40;;;;;;;7.60;1.67;;;16.20;99.90;;;;;;6229573;28;20050;-82
2022/10/11 07:09:42;;;;;;;8.52;2.10;;;16.40;99.50;;;;;;6231797;28;20046;-79
2022/10/11 07:12:44;;;;;;;8.23;1.67;;;16.40;99.10;;;;;;6238221;28;20049;-80
2022/10/11 07:15:46;;;;;;;7.72;1.85;;;16.40;99.00;;;;;;6230839;28;20487;-80
2022/10/11 07:18:51;;;;;;;6.70;1.42;;;16.50;98.60;;;;;;6230345;28;20058;-80
2022/10/11 07:21:54;;;;;;;5.38;1.20;;;16.60;98.10;;;;;;6229875;28;20046;-79
2022/10/11 07:24:56;;;;;;;3.20;1.13;;;16.80;97.10;;;;;;6229126;28;20050;-79
2022/10/11 07:27:57;;;;;;;7.00;1.02;;;16.80;96.50;;;;;;6229156;28;20140;-79
2022/10/11 07:31:03;;;;;;;8.00;1.52;;;16.80;96.20;;;;;;6230260;28;20126;-80
2022/10/11 07:34:05;;;;;;;6.57;1.05;;;16.70;96.10;;;;;;6230035;28;20052;-80
2022/10/11 07:37:08;;;;;;;11.38;1.30;;;16.70;95.40;;;;;;6229207;28;20056;-80
2022/10/11 07:40:10;;;;;;;8.63;1.50;;;16.70;95.40;;;;;;6229323;28;20051;-81
2022/10/11 07:43:13;;;;;;;10.57;1.10;;;16.80;95.50;;;;;;6231337;28;20058;-79
2022/10/11 07:46:14;;;;;;;12.07;2.15;;;16.90;94.70;;;;;;6228368;28;20042;-79
2022/10/11 07:49:16;;;;;;;7.95;1.23;;;17.00;94.30;;;;;;6228405;28;20411;-80
2022/10/11 07:52:19;;;;;;;10.73;1.65;;;17.20;93.40;;;;;;6228472;28;20045;-78
2022/10/11 07:55:21;;;;;;;9.98;1.42;;;17.30;93.40;;;;;;6227641;28;20076;-80
2022/10/11 07:58:22;;;;;;;5.22;1.10;;;17.40;93.00;;;;;;6226623;28;20046;-80
2022/10/11 08:01:25;;;;;;;6.72;1.15;;;17.50;93.00;;;;;;6222717;28;20061;-79
2022/10/11 08:04:27;;;;;;;10.13;1.23;;;17.70;92.50;;;;;;6242984;28;20053;-79
2022/10/11 08:07:30;;;;;;;3.95;1.17;;;17.50;92.30;;;;;;6250133;28;20054;-79
2022/10/11 08:10:37;;;;;;;12.85;1.42;;;17.30;92.70;;;;;;6254749;28;20045;-80
2022/10/11 08:13:38;;;;;;;22.05;4.65;;;17.20;92.50;;;;;;6255607;28;20041;-79
2022/10/11 08:16:40;;;;;;;8.52;1.30;;;17.10;92.30;;;;;;6255243;28;20053;-81
2022/10/11 08:19:42;;;;;;;10.32;1.55;;;17.10;92.30;;;;;;6254091;28;20052;-79
2022/10/11 08:22:45;;;;;;;3.95;1.48;;;16.90;92.80;;;;;;6255847;28;20057;-80
2022/10/11 08:25:48;;;;;;;6.53;1.45;;;16.90;92.70;;;;;;6254352;28;20060;-80
2022/10/11 08:28:49;;;;;;;6.63;1.30;;;16.90;92.70;;;;;;6253209;28;20052;-80
2022/10/11 08:31:51;;;;;;;9.68;1.75;;;17.00;92.80;;;;;;6252404;28;20053;-80
2022/10/11 08:34:53;;;;;;;12.88;2.17;;;17.10;92.90;;;;;;6252641;28;20057;-80
2022/10/11 08:37:56;;;;;;;14.20;1.60;;;17.30;92.30;;;;;;6268809;28;20136;-81
2022/10/11 08:40:59;;;;;;;8.60;1.67;;;17.50;91.80;;;;;;6255423;28;20045;-81
2022/10/11 08:44:14;;;;;;;4.82;1.13;;;18.00;91.40;;;;;;6255941;28;20052;-81
2022/10/11 08:47:20;;;;;;;9.25;2.22;;;18.00;91.00;;;;;;6255850;28;20053;-81
2022/10/11 08:50:23;;;;;;;6.78;2.00;;;18.30;90.60;;;;;;6257343;28;20045;-81
2022/10/11 08:53:37;;;;;;;7.65;1.50;;;18.40;89.30;;;;;;6257061;28;20052;-81
2022/10/11 08:56:42;;;;;;;14.15;2.10;;;18.30;90.30;;;;;;6256908;28;20049;-80
2022/10/11 08:59:49;;;;;;;13.95;1.42;;;18.60;90.10;;;;;;6254906;28;20048;-81
2022/10/11 09:03:01;;;;;;;10.88;1.80;;;19.10;88.50;;;;;;6255816;28;20055;-80
2022/10/11 09:06:15;;;;;;;5.55;1.05;;;19.20;86.60;;;;;;6255734;28;20041;-80
2022/10/11 09:09:42;;;;;;;7.90;1.90;;;19.40;86.90;;;;;;6265999;28;20045;-80
2022/10/11 09:12:52;;;;;;;11.80;2.00;;;19.60;85.80;;;;;;6278187;28;20064;-81
2022/10/11 09:16:01;;;;;;;8.18;2.13;;;19.80;84.00;;;;;;6253665;28;20491;-81
2022/10/11 09:19:28;;;;;;;8.95;1.80;;;19.80;83.40;;;;;;6225480;28;20054;-82
2022/10/11 09:22:41;;;;;;;8.93;1.65;;;19.70;82.90;;;;;;6205064;28;20588;-84
2022/10/11 09:25:51;;;;;;;3.75;1.05;;;19.50;83.10;;;;;;6219173;28;20046;-83
2022/10/11 09:29:00;;;;;;;9.88;1.65;;;19.30;83.50;;;;;;6224944;28;20057;-83
2022/10/11 09:32:02;;;;;;;9.00;2.03;;;19.00;84.70;;;;;;6229070;28;20049;-83
2022/10/11 09:35:12;;;;;;;7.40;1.80;;;18.80;85.20;;;;;;6265629;28;20071;-82
2022/10/11 09:38:24;;;;;;;7.85;1.63;;;18.90;85.10;;;;;;6277482;28;20045;-82
2022/10/11 09:41:35;;;;;;;8.40;2.03;;;18.90;85.00;;;;;;6278798;28;20053;-81
2022/10/11 09:44:39;;;;;;;12.05;2.58;;;18.80;84.60;;;;;;6274890;28;20045;-81
2022/10/11 09:47:41;;;;;;;8.32;2.05;;;18.50;86.50;;;;;;6275839;28;20056;-80
2022/10/11 09:50:44;;;;;;;3.83;1.50;;;18.60;86.40;;;;;;6279880;28;20163;-80
2022/10/11 09:53:52;;;;;;;6.88;1.52;;;18.50;87.00;;;;;;6279715;28;20423;-81
2022/10/11 09:56:55;;;;;;;6.68;1.52;;;18.60;87.00;;;;;;6280135;28;20120;-82
2022/10/11 10:00:04;;;;;;;3.08;1.58;;;18.50;87.10;;;;;;6281332;28;20056;-82
2022/10/11 10:03:26;;;;;;;8.85;1.67;;;18.50;87.40;;;;;;6272453;28;20055;-83
2022/10/11 10:06:28;;;;;;;8.75;2.10;;;18.50;87.30;;;;;;6253569;28;20049;-82
2022/10/11 10:09:30;;;;;;;4.28;1.42;;;18.20;87.60;;;;;;6256426;28;20056;-83
2022/10/11 10:12:33;;;;;;;7.55;1.27;;;18.20;88.60;;;;;;6254738;28;20057;-81
2022/10/11 10:15:36;;;;;;;5.20;1.40;;;18.60;88.80;;;;;;6251207;28;20060;-82
2022/10/11 10:18:44;;;;;;;13.50;3.67;;;18.80;87.60;;;;;;6233813;28;20049;-82
2022/10/11 10:21:47;;;;;;;12.20;1.98;;;19.00;87.60;;;;;;6250696;28;20674;-83
2022/10/11 10:24:51;;;;;;;11.68;2.22;;;19.10;86.80;;;;;;6250624;28;20507;-83
2022/10/11 10:27:59;;;;;;;6.43;1.98;;;19.20;86.60;;;;;;6250437;28;20069;-83
2022/10/11 10:31:00;;;;;;;4.22;1.55;;;19.00;86.30;;;;;;6254836;28;20045;-83
2022/10/11 10:34:06;;;;;;;16.77;2.60;;;18.80;87.90;;;;;;6255375;28;20057;-83
2022/10/11 10:37:16;;;;;;;5.53;2.90;;;18.80;88.10;;;;;;6277327;28;20420;-83
2022/10/11 10:40:22;;;;;;;6.05;1.30;;;18.80;88.20;;;;;;6281356;28;20055;-81
2022/10/11 10:43:27;;;;;;;7.95;1.98;;;18.80;88.50;;;;;;6283360;28;20389;-83
2022/10/11 10:46:38;;;;;;;8.27;2.05;;;19.20;88.10;;;;;;6282336;28;20045;-82
2022/10/11 10:49:44;;;;;;;13.95;2.10;;;19.30;87.40;;;;;;6283891;28;20044;-83
2022/10/11 10:53:03;;;;;;;10.57;2.10;;;19.50;86.50;;;;;;6284012;28;20071;-82
2022/10/11 10:56:10;;;;;;;7.60;1.73;;;19.50;86.10;;;;;;6283007;28;20670;-82
2022/10/11 10:59:32;;;;;;;9.00;2.43;;;19.60;86.70;;;;;;6279607;28;20045;-82
2022/10/11 11:02:41;;;;;;;8.85;2.30;;;19.50;85.70;;;;;;6272774;28;20048;-80
2022/10/11 11:05:48;;;;;;;5.75;2.08;;;19.20;87.10;;;;;;6273807;28;20048;-80
2022/10/11 11:09:10;;;;;;;6.78;2.10;;;19.10;88.10;;;;;;6284755;28;20063;-81
2022/10/11 11:12:25;;;;;;;8.00;2.17;;;19.20;88.50;;;;;;6279259;28;20049;-81
2022/10/11 11:15:36;;;;;;;12.27;2.67;;;19.40;88.20;;;;;;6280694;28;20056;-82
2022/10/11 11:18:46;;;;;;;12.18;2.15;;;19.40;88.30;;;;;;6279841;28;20411;-82
2022/10/11 11:21:57;;;;;;;11.73;2.53;;;19.50;88.50;;;;;;6278882;28;20526;-81
2022/10/11 11:25:08;;;;;;;8.05;2.65;;;19.50;87.80;;;;;;6279429;28;20045;-82
2022/10/11 11:28:32;;;;;;;8.68;2.13;;;19.20;88.00;;;;;;6277986;28;20056;-81
2022/10/11 11:32:01;;;;;;;12.90;2.65;;;19.20;88.30;;;;;;6277016;28;20045;-82
2022/10/11 11:35:09;;;;;;;6.90;1.60;;;19.20;87.90;;;;;;6267799;28;20048;-82
2022/10/11 11:38:14;;;;;;;;;;;19.30;88.70;;;;;;6276820;28;20075;-82
2022/10/11 11:41:22;;;;;;;11.82;2.70;;;19.60;88.10;;;;;;6277061;28;19920;-82
2022/10/11 11:44:29;;;;;;;11.07;2.97;;;20.00;87.30;;;;;;6277326;28;20052;-81
2022/10/11 11:47:36;;;;;;;9.35;2.65;;;20.10;85.80;;;;;;6277541;28;20049;-81
2022/10/11 11:50:42;;;;;;;3.63;1.95;;;20.00;86.30;;;;;;6276302;28;20057;-81
2022/10/11 11:53:53;;;;;;;9.32;2.15;;;20.00;86.50;;;;;;6278989;28;20055;-82
2022/10/11 11:57:01;;;;;;;4.57;1.95;;;19.80;87.00;;;;;;6279512;28;20049;-80
2022/10/11 12:00:06;;;;;;;11.95;2.63;;;19.90;87.70;;;;;;6274772;28;20465;-81
2022/10/11 12:03:15;;;;;;;9.30;2.30;;;19.90;86.60;;;;;;6267003;28;20059;-82
2022/10/11 12:06:24;;;;;;;9.13;2.63;;;20.00;86.90;;;;;;6266697;28;20096;-82
2022/10/11 12:09:26;;;;;;;8.57;2.47;;;20.00;87.30;;;;;;6278512;28;20049;-82
2022/10/11 12:12:32;;;;;;;12.45;2.55;;;20.10;87.10;;;;;;6275737;28;20048;-81
2022/10/11 12:15:35;;;;;;;17.50;4.45;;;20.30;87.00;;;;;;6268220;28;20048;-81
2022/10/11 12:18:50;;;;;;;11.30;3.15;;;20.40;85.90;;;;;;6246896;28;20499;-82
2022/10/11 12:22:34;;;;;;;15.23;3.78;;;20.20;86.00;;;;;;6246988;28;20426;-82
2022/10/11 12:25:40;;;;;;;9.73;2.95;;;19.80;87.10;;;;;;6249853;28;20045;-82
2022/10/11 12:29:15;;;;;;;21.85;6.32;;;19.70;87.70;;;;;;6250560;28;20133;-82
2022/10/11 12:32:51;;;;;;;12.57;2.78;;;19.60;88.70;;;;;;6244431;28;20533;-82
2022/10/11 12:36:01;;;;;;;8.50;2.58;;;19.70;89.40;;;;;;6254225;28;20824;-82
2022/10/11 12:39:45;;;;;;;5.22;2.45;;;19.80;89.00;;;;;;6250616;28;20049;-82
2022/10/11 12:43:11;;;;;;;8.75;2.65;;;19.80;88.40;;;;;;6216717;28;20061;-82
2022/10/11 12:46:40;;;;;;;7.05;2.78;;;19.70;89.70;;;;;;6246989;28;20060;-82
2022/10/11 12:49:55;;;;;;;6.97;2.30;;;19.90;89.50;;;;;;6249925;28;20518;-82
2022/10/11 12:53:09;;;;;;;7.93;3.10;;;20.00;88.60;;;;;;6250178;28;20299;-82
2022/10/11 12:56:14;;;;;;;13.32;4.72;;;20.10;88.70;;;;;;6250279;28;20049;-82
2022/10/11 12:59:20;;;;;;;8.93;3.42;;;20.00;88.30;;;;;;6249148;28;20407;-83
2022/10/11 13:02:28;;;;;;;9.07;2.83;;;19.90;88.40;;;;;;6240835;28;20057;-82
2022/10/11 13:05:31;;;;;;;;;;;19.80;90.00;;;;;;6256261;28;20050;-82
2022/10/11 13:08:37;;;;;;;11.65;4.53;;;19.80;89.50;;;;;;6245255;28;20008;-82
2022/10/11 13:11:44;;;;;;;6.90;3.13;;;19.90;89.50;;;;;;6225357;28;20054;-82
2022/10/11 13:14:54;;;;;;;8.20;2.95;;;19.90;89.20;;;;;;6252212;28;20053;-82
2022/10/11 13:17:59;;;;;;;11.60;2.85;;;20.10;89.60;;;;;;6249641;28;20045;-83
2022/10/11 13:21:01;;;;;;;15.32;3.70;;;20.10;88.20;;;;;;6250153;28;20503;-83
2022/10/11 13:24:10;;;;;;;13.02;2.75;;;20.20;88.70;;;;;;6248501;28;20515;-83
2022/10/11 13:27:19;;;;;;;8.55;2.80;;;20.60;87.70;;;;;;6249102;28;20072;-83
2022/10/11 13:30:25;;;;;;;8.93;2.50;;;20.90;87.70;;;;;;6251977;28;20045;-85
2022/10/11 13:33:31;;;;;;;22.30;4.90;;;21.40;86.10;;;;;;6251934;28;20055;-83
2022/10/11 13:36:32;;;;;;;7.85;2.47;;;21.60;83.70;;;;;;6257225;28;20060;-82
2022/10/11 13:39:38;;;;;;;13.90;3.35;;;21.30;84.00;;;;;;6275443;28;20469;-82
2022/10/11 13:42:40;;;;;;;10.82;2.65;;;20.90;84.50;;;;;;6282099;28;20052;-83
2022/10/11 13:45:42;;;;;;;12.23;2.97;;;20.60;86.50;;;;;;6283094;28;20136;-83
2022/10/11 13:48:44;;;;;;;8.20;2.42;;;20.70;86.50;;;;;;6279418;28;20053;-83
2022/10/11 13:51:57;;;;;;;12.73;4.03;;;20.70;86.80;;;;;;6280819;28;20059;-82
2022/10/11 13:55:24;;;;;;;15.60;3.25;;;20.50;86.50;;;;;;6273571;28;20049;-82
2022/10/11 13:58:30;;;;;;;19.20;8.10;;;20.40;86.80;;;;;;6263420;28;20543;-82
2022/10/11 14:01:38;;;;;;;9.40;2.85;;;20.40;87.40;;;;;;6248911;28;20060;-81
2022/10/11 14:04:40;;;;;;;11.63;3.63;;;20.50;87.20;;;;;;6254949;28;20575;-82
2022/10/11 14:07:42;;;;;;;8.70;3.33;;;20.50;87.10;;;;;;6248703;28;20053;-82
2022/10/11 14:10:47;;;;;;;7.30;2.33;;;20.50;86.80;;;;;;6233428;28;20161;-81
2022/10/11 14:13:49;;;;;;;5.68;3.00;;;20.10;87.50;;;;;;6226359;28;20053;-82
2022/10/11 14:16:56;;;;;;;7.00;3.10;;;20.00;88.20;;;;;;6227479;28;20522;-83
2022/10/11 14:20:12;;;;;;;9.60;2.95;;;19.90;89.10;;;;;;6227868;28;20127;-82
2022/10/11 14:23:14;;;;;;;7.85;2.35;;;20.20;88.90;;;;;;6239440;28;20470;-82
2022/10/11 14:26:18;;;;;;;6.88;2.05;;;20.30;88.90;;;;;;6249793;28;20475;-81
2022/10/11 14:29:24;;;;;;;5.68;2.38;;;20.30;88.60;;;;;;6248082;28;20053;-82
2022/10/11 14:32:32;;;;;;;3.80;1.98;;;20.00;88.50;;;;;;6240273;28;20045;-81
2022/10/11 14:35:34;;;;;;;9.15;2.90;;;19.90;89.10;;;;;;6249486;28;20554;-82
2022/10/11 14:38:36;;;;;;;8.27;2.50;;;19.80;89.40;;;;;;6252311;28;20050;-82
2022/10/11 14:41:39;;;;;;;7.05;2.28;;;19.80;90.00;;;;;;6252352;28;20061;-81
2022/10/11 14:44:41;;;;;;;6.43;2.70;;;19.70;90.00;;;;;;6253376;28;20129;-81
2022/10/11 14:47:43;;;;;;;8.20;2.90;;;19.70;90.30;;;;;;6252809;28;20495;-82
2022/10/11 14:50:47;;;;;;;9.43;2.47;;;19.80;90.40;;;;;;6255339;28;20404;-82
2022/10/11 14:53:53;;;;;;;5.25;2.05;;;19.80;90.50;;;;;;6253229;28;20049;-82
2022/10/11 14:56:58;;;;;;;10.75;2.78;;;19.80;90.40;;;;;;6253327;28;20053;-82
2022/10/11 15:00:00;;;;;;;12.63;3.30;;;19.70;90.70;;;;;;6253473;28;20515;-83
2022/10/11 15:03:03;;;;;;;12.02;2.80;;;19.70;90.70;;;;;;6253740;28;20510;-82
2022/10/11 15:06:06;;;;;;;8.45;1.98;;;19.70;90.80;;;;;;6260986;28;20424;-83
2022/10/11 15:09:08;;;;;;;14.82;3.13;;;19.60;90.90;;;;;;6252409;28;20056;-82
2022/10/11 15:12:11;;;;;;;6.22;2.67;;;19.70;91.00;;;;;;6251882;28;20049;-82
2022/10/11 15:15:18;;;;;;;7.63;1.88;;;19.70;91.10;;;;;;6251502;28;20072;-83
2022/10/11 15:18:20;;;;;;;9.75;2.55;;;19.80;91.10;;;;;;6253356;28;20132;-83
2022/10/11 15:21:24;;;;;;;5.55;2.15;;;19.70;90.70;;;;;;6252366;28;20049;-82
2022/10/11 15:24:26;;;;;;;4.85;2.58;;;19.70;91.10;;;;;;6233845;28;20046;-81
2022/10/11 15:27:29;;;;;;;6.93;2.22;;;19.70;91.30;;;;;;6228365;28;20057;-82
2022/10/11 15:30:33;;;;;;;6.90;2.70;;;19.60;91.00;;;;;;6227947;28;20038;-82
2022/10/11 15:33:35;;;;;;;13.15;2.97;;;19.50;91.10;;;;;;6248857;28;20051;-83
2022/10/11 15:36:36;;;;;;;5.75;2.75;;;19.40;91.50;;;;;;6263053;28;20051;-82
2022/10/11 15:39:38;;;;;;;5.13;1.90;;;19.30;91.50;;;;;;6276845;28;20414;-81
2022/10/11 15:42:42;;;;;;;7.75;2.05;;;19.30;91.80;;;;;;6277553;28;20105;-82
2022/10/11 15:45:44;;;;;;;10.68;2.28;;;19.20;92.00;;;;;;6276338;28;20045;-83
2022/10/11 15:48:46;;;;;;;9.00;2.60;;;19.30;92.20;;;;;;6277498;28;20045;-81
2022/10/11 15:51:48;;;;;;;7.03;1.80;;;19.40;92.30;;;;;;6277821;28;20041;-83
2022/10/11 15:54:49;;;;;;;7.10;2.55;;;19.60;92.30;;;;;;6278351;28;20055;-83
2022/10/11 15:57:52;;;;;;;9.20;2.17;;;19.60;92.20;;;;;;6278356;28;20055;-84